sensor_id;sensor_type;location;lat;lon;timestamp;P1;durP1;ratioP1;P2;durP2;ratioP2
35576;SDS011;21680;52.400;16.920;2023-03-05T00:01:10;25.10;;;7.60;;
35576;SDS011;21680;52.400;16.920;2023-03-05T00:03:47;13.00;;;5.80;;
35576;SDS011;21680;52.400;16.920;2023-03-05T00:06:13;21.40;;;5.50;;
35576;SDS011;21680;52.400;16.920;2023-03-05T00:08:38;24.10;;;6.70;;
35576;SDS011;21680;52.400;16.920;2023-03-05T00:11:08;22.30;;;7.10;;
35576;SDS011;21680;52.400;16.920;2023-03-05T00:13:35;20.90;;;6.90;;
35576;SDS011;21680;52.400;16.920;2023-03-05T00:16:02;20.90;;;7.00;;
35576;SDS011;21680;52.400;16.920;2023-03-05T00:18:29;21.90;;;6.90;;
35576;SDS011;21680;52.400;16.920;2023-03-05T00:20:55;20.20;;;6.80;;
35576;SDS011;21680;52.400;16.920;2023-03-05T00:23:20;17.20;;;4.90;;
35576;SDS011;21680;52.400;16.920;2023-03-05T00:25:45;23.30;;;6.40;;
35576;SDS011;21680;52.400;16.920;2023-03-05T00:28:11;19.00;;;6.10;;
35576;SDS011;21680;52.400;16.920;2023-03-05T00:30:37;17.20;;;6.00;;
35576;SDS011;21680;52.400;16.920;2023-03-05T00:33:02;15.40;;;5.80;;
35576;SDS011;21680;52.400;16.920;2023-03-05T00:35:27;26.00;;;6.30;;
35576;SDS011;21680;52.400;16.920;2023-03-05T00:37:55;17.20;;;6.40;;
35576;SDS011;21680;52.400;16.920;2023-03-05T00:40:20;22.50;;;6.20;;
35576;SDS011;21680;52.400;16.920;2023-03-05T00:42:45;23.50;;;7.60;;
35576;SDS011;21680;52.400;16.920;2023-03-05T00:45:11;17.70;;;7.10;;
35576;SDS011;21680;52.400;16.920;2023-03-05T00:47:37;19.30;;;6.00;;
35576;SDS011;21680;52.400;16.920;2023-03-05T00:50:02;22.20;;;7.60;;
35576;SDS011;21680;52.400;16.920;2023-03-05T00:52:29;27.90;;;8.70;;
35576;SDS011;21680;52.400;16.920;2023-03-05T00:54:54;29.20;;;10.00;;
35576;SDS011;21680;52.400;16.920;2023-03-05T00:57:20;19.90;;;7.10;;
35576;SDS011;21680;52.400;16.920;2023-03-05T00:59:45;24.60;;;7.50;;
35576;SDS011;21680;52.400;16.920;2023-03-05T01:02:10;33.20;;;8.70;;
35576;SDS011;21680;52.400;16.920;2023-03-05T01:04:36;23.60;;;7.40;;
35576;SDS011;21680;52.400;16.920;2023-03-05T01:07:02;26.40;;;7.80;;
35576;SDS011;21680;52.400;16.920;2023-03-05T01:09:28;24.10;;;8.00;;
35576;SDS011;21680;52.400;16.920;2023-03-05T01:11:54;21.70;;;7.20;;
35576;SDS011;21680;52.400;16.920;2023-03-05T01:14:20;31.90;;;7.50;;
35576;SDS011;21680;52.400;16.920;2023-03-05T01:16:46;20.80;;;7.20;;
35576;SDS011;21680;52.400;16.920;2023-03-05T01:19:12;24.40;;;7.00;;
35576;SDS011;21680;52.400;16.920;2023-03-05T01:21:39;20.00;;;6.30;;
35576;SDS011;21680;52.400;16.920;2023-03-05T01:24:04;21.50;;;6.60;;
35576;SDS011;21680;52.400;16.920;2023-03-05T01:26:30;19.10;;;6.70;;
35576;SDS011;21680;52.400;16.920;2023-03-05T01:28:55;21.90;;;6.80;;
35576;SDS011;21680;52.400;16.920;2023-03-05T01:31:21;25.20;;;6.80;;
35576;SDS011;21680;52.400;16.920;2023-03-05T01:33:46;23.70;;;7.30;;
35576;SDS011;21680;52.400;16.920;2023-03-05T01:36:12;19.40;;;6.60;;
35576;SDS011;21680;52.400;16.920;2023-03-05T01:38:41;17.70;;;5.80;;
35576;SDS011;21680;52.400;16.920;2023-03-05T01:41:07;24.70;;;7.10;;
35576;SDS011;21680;52.400;16.920;2023-03-05T01:43:33;18.00;;;6.20;;
35576;SDS011;21680;52.400;16.920;2023-03-05T01:48:46;19.30;;;6.20;;
35576;SDS011;21680;52.400;16.920;2023-03-05T01:51:17;16.20;;;4.70;;
35576;SDS011;21680;52.400;16.920;2023-03-05T01:53:44;18.80;;;5.60;;
35576;SDS011;21680;52.400;16.920;2023-03-05T01:56:11;26.80;;;7.10;;
35576;SDS011;21680;52.400;16.920;2023-03-05T01:58:36;16.30;;;5.80;;
35576;SDS011;21680;52.400;16.920;2023-03-05T02:01:04;17.20;;;5.70;;
35576;SDS011;21680;52.400;16.920;2023-03-05T02:03:29;19.80;;;6.10;;
35576;SDS011;21680;52.400;16.920;2023-03-05T02:05:57;22.40;;;6.00;;
35576;SDS011;21680;52.400;16.920;2023-03-05T02:08:22;21.50;;;5.50;;
35576;SDS011;21680;52.400;16.920;2023-03-05T02:10:49;14.80;;;4.60;;
35576;SDS011;21680;52.400;16.920;2023-03-05T02:13:20;16.30;;;4.70;;
35576;SDS011;21680;52.400;16.920;2023-03-05T02:15:48;13.80;;;4.60;;
35576;SDS011;21680;52.400;16.920;2023-03-05T02:18:15;24.40;;;4.90;;
35576;SDS011;21680;52.400;16.920;2023-03-05T02:23:17;12.50;;;4.10;;
35576;SDS011;21680;52.400;16.920;2023-03-05T02:25:45;13.20;;;4.70;;
35576;SDS011;21680;52.400;16.920;2023-03-05T02:30:54;12.30;;;4.10;;
35576;SDS011;21680;52.400;16.920;2023-03-05T02:33:19;14.10;;;5.10;;
35576;SDS011;21680;52.400;16.920;2023-03-05T02:35:45;12.70;;;4.90;;
35576;SDS011;21680;52.400;16.920;2023-03-05T02:38:15;13.60;;;4.10;;
35576;SDS011;21680;52.400;16.920;2023-03-05T02:40:42;13.50;;;4.70;;
35576;SDS011;21680;52.400;16.920;2023-03-05T02:43:08;14.80;;;4.40;;
35576;SDS011;21680;52.400;16.920;2023-03-05T02:45:35;17.50;;;5.40;;
35576;SDS011;21680;52.400;16.920;2023-03-05T02:48:01;12.50;;;3.90;;
35576;SDS011;21680;52.400;16.920;2023-03-05T02:50:26;12.90;;;4.00;;
35576;SDS011;21680;52.400;16.920;2023-03-05T02:52:52;14.40;;;4.70;;
35576;SDS011;21680;52.400;16.920;2023-03-05T02:55:18;12.60;;;4.80;;
35576;SDS011;21680;52.400;16.920;2023-03-05T02:57:43;11.50;;;4.60;;
35576;SDS011;21680;52.400;16.920;2023-03-05T03:00:09;14.80;;;5.00;;
35576;SDS011;21680;52.400;16.920;2023-03-05T03:02:35;15.90;;;4.20;;
35576;SDS011;21680;52.400;16.920;2023-03-05T03:05:00;17.30;;;5.20;;
35576;SDS011;21680;52.400;16.920;2023-03-05T03:07:26;13.80;;;5.00;;
35576;SDS011;21680;52.400;16.920;2023-03-05T03:09:52;16.50;;;5.10;;
35576;SDS011;21680;52.400;16.920;2023-03-05T03:12:17;11.90;;;4.20;;
35576;SDS011;21680;52.400;16.920;2023-03-05T03:14:42;15.80;;;4.80;;
35576;SDS011;21680;52.400;16.920;2023-03-05T03:17:10;13.60;;;4.10;;
35576;SDS011;21680;52.400;16.920;2023-03-05T03:19:38;17.50;;;6.00;;
35576;SDS011;21680;52.400;16.920;2023-03-05T03:22:04;16.80;;;3.80;;
35576;SDS011;21680;52.400;16.920;2023-03-05T03:24:32;16.90;;;5.10;;
35576;SDS011;21680;52.400;16.920;2023-03-05T03:26:58;12.10;;;4.30;;
35576;SDS011;21680;52.400;16.920;2023-03-05T03:29:24;10.00;;;4.40;;
35576;SDS011;21680;52.400;16.920;2023-03-05T03:31:49;15.10;;;4.40;;
35576;SDS011;21680;52.400;16.920;2023-03-05T03:34:15;17.10;;;5.20;;
35576;SDS011;21680;52.400;16.920;2023-03-05T03:36:41;17.20;;;4.90;;
35576;SDS011;21680;52.400;16.920;2023-03-05T03:39:08;15.60;;;5.10;;
35576;SDS011;21680;52.400;16.920;2023-03-05T03:41:35;14.30;;;5.20;;
35576;SDS011;21680;52.400;16.920;2023-03-05T03:44:02;18.70;;;5.80;;
35576;SDS011;21680;52.400;16.920;2023-03-05T03:46:29;20.40;;;6.20;;
35576;SDS011;21680;52.400;16.920;2023-03-05T03:48:54;20.20;;;5.10;;
35576;SDS011;21680;52.400;16.920;2023-03-05T03:51:20;14.40;;;5.80;;
35576;SDS011;21680;52.400;16.920;2023-03-05T03:53:45;18.30;;;5.20;;
35576;SDS011;21680;52.400;16.920;2023-03-05T03:56:10;14.00;;;4.80;;
35576;SDS011;21680;52.400;16.920;2023-03-05T03:58:36;15.40;;;5.60;;
35576;SDS011;21680;52.400;16.920;2023-03-05T04:01:01;15.10;;;4.90;;
35576;SDS011;21680;52.400;16.920;2023-03-05T04:03:26;17.40;;;5.80;;
35576;SDS011;21680;52.400;16.920;2023-03-05T04:05:51;19.40;;;5.60;;
35576;SDS011;21680;52.400;16.920;2023-03-05T04:08:17;19.20;;;4.90;;
35576;SDS011;21680;52.400;16.920;2023-03-05T04:10:42;16.00;;;5.00;;
35576;SDS011;21680;52.400;16.920;2023-03-05T04:13:08;16.80;;;5.40;;
35576;SDS011;21680;52.400;16.920;2023-03-05T04:15:33;16.80;;;5.90;;
35576;SDS011;21680;52.400;16.920;2023-03-05T04:17:59;13.30;;;4.90;;
35576;SDS011;21680;52.400;16.920;2023-03-05T04:20:24;13.70;;;4.20;;
35576;SDS011;21680;52.400;16.920;2023-03-05T04:22:50;11.50;;;4.60;;
35576;SDS011;21680;52.400;16.920;2023-03-05T04:25:15;12.40;;;4.70;;
35576;SDS011;21680;52.400;16.920;2023-03-05T04:27:40;12.50;;;3.90;;
35576;SDS011;21680;52.400;16.920;2023-03-05T04:30:06;30.70;;;7.30;;
35576;SDS011;21680;52.400;16.920;2023-03-05T04:32:33;16.20;;;5.40;;
35576;SDS011;21680;52.400;16.920;2023-03-05T04:34:59;11.40;;;4.30;;
35576;SDS011;21680;52.400;16.920;2023-03-05T04:37:25;18.10;;;5.50;;
35576;SDS011;21680;52.400;16.920;2023-03-05T04:39:51;13.50;;;4.40;;
35576;SDS011;21680;52.400;16.920;2023-03-05T04:42:17;16.60;;;4.90;;
35576;SDS011;21680;52.400;16.920;2023-03-05T04:44:44;17.40;;;5.30;;
35576;SDS011;21680;52.400;16.920;2023-03-05T04:47:10;19.10;;;5.20;;
35576;SDS011;21680;52.400;16.920;2023-03-05T04:49:36;16.10;;;5.80;;
35576;SDS011;21680;52.400;16.920;2023-03-05T04:52:01;19.30;;;5.60;;
35576;SDS011;21680;52.400;16.920;2023-03-05T04:54:27;19.80;;;6.70;;
35576;SDS011;21680;52.400;16.920;2023-03-05T04:56:52;12.20;;;5.30;;
35576;SDS011;21680;52.400;16.920;2023-03-05T04:59:17;11.90;;;5.40;;
35576;SDS011;21680;52.400;16.920;2023-03-05T05:01:43;18.40;;;5.70;;
35576;SDS011;21680;52.400;16.920;2023-03-05T05:04:08;15.60;;;5.80;;
35576;SDS011;21680;52.400;16.920;2023-03-05T05:06:33;14.50;;;6.20;;
35576;SDS011;21680;52.400;16.920;2023-03-05T05:08:58;17.70;;;6.10;;
35576;SDS011;21680;52.400;16.920;2023-03-05T05:11:24;14.00;;;6.20;;
35576;SDS011;21680;52.400;16.920;2023-03-05T05:13:49;16.50;;;5.90;;
35576;SDS011;21680;52.400;16.920;2023-03-05T05:16:14;20.90;;;5.90;;
35576;SDS011;21680;52.400;16.920;2023-03-05T05:18:40;23.60;;;7.40;;
35576;SDS011;21680;52.400;16.920;2023-03-05T05:21:06;17.60;;;5.80;;
35576;SDS011;21680;52.400;16.920;2023-03-05T05:23:33;18.40;;;6.30;;
35576;SDS011;21680;52.400;16.920;2023-03-05T05:25:58;15.60;;;5.30;;
35576;SDS011;21680;52.400;16.920;2023-03-05T05:28:25;20.10;;;6.50;;
35576;SDS011;21680;52.400;16.920;2023-03-05T05:30:51;18.50;;;5.10;;
35576;SDS011;21680;52.400;16.920;2023-03-05T05:33:16;17.80;;;5.70;;
35576;SDS011;21680;52.400;16.920;2023-03-05T05:35:42;9.80;;;4.00;;
35576;SDS011;21680;52.400;16.920;2023-03-05T05:38:07;13.70;;;5.20;;
35576;SDS011;21680;52.400;16.920;2023-03-05T05:40:32;14.10;;;5.20;;
35576;SDS011;21680;52.400;16.920;2023-03-05T05:42:57;14.50;;;4.80;;
35576;SDS011;21680;52.400;16.920;2023-03-05T05:45:23;14.90;;;5.20;;
35576;SDS011;21680;52.400;16.920;2023-03-05T05:47:48;17.40;;;5.30;;
35576;SDS011;21680;52.400;16.920;2023-03-05T05:50:13;14.10;;;5.20;;
35576;SDS011;21680;52.400;16.920;2023-03-05T05:52:40;22.30;;;5.90;;
35576;SDS011;21680;52.400;16.920;2023-03-05T05:55:06;14.10;;;5.30;;
35576;SDS011;21680;52.400;16.920;2023-03-05T05:57:32;15.00;;;4.90;;
35576;SDS011;21680;52.400;16.920;2023-03-05T05:59:58;15.50;;;4.40;;
35576;SDS011;21680;52.400;16.920;2023-03-05T06:02:23;20.90;;;5.80;;
35576;SDS011;21680;52.400;16.920;2023-03-05T06:04:48;12.60;;;4.80;;
35576;SDS011;21680;52.400;16.920;2023-03-05T06:07:14;22.60;;;6.20;;
35576;SDS011;21680;52.400;16.920;2023-03-05T06:09:39;11.90;;;5.00;;
35576;SDS011;21680;52.400;16.920;2023-03-05T06:12:05;13.60;;;4.60;;
35576;SDS011;21680;52.400;16.920;2023-03-05T06:14:31;17.40;;;4.70;;
35576;SDS011;21680;52.400;16.920;2023-03-05T06:16:57;9.50;;;4.80;;
35576;SDS011;21680;52.400;16.920;2023-03-05T06:19:22;10.40;;;3.80;;
35576;SDS011;21680;52.400;16.920;2023-03-05T06:21:47;16.40;;;4.70;;
35576;SDS011;21680;52.400;16.920;2023-03-05T06:24:13;12.40;;;4.20;;
35576;SDS011;21680;52.400;16.920;2023-03-05T06:26:38;13.70;;;4.20;;
35576;SDS011;21680;52.400;16.920;2023-03-05T06:29:03;10.80;;;4.50;;
35576;SDS011;21680;52.400;16.920;2023-03-05T06:31:29;13.50;;;4.80;;
35576;SDS011;21680;52.400;16.920;2023-03-05T06:33:55;12.10;;;3.70;;
35576;SDS011;21680;52.400;16.920;2023-03-05T06:36:23;12.10;;;3.90;;
35576;SDS011;21680;52.400;16.920;2023-03-05T06:38:50;7.80;;;2.80;;
35576;SDS011;21680;52.400;16.920;2023-03-05T06:41:17;7.20;;;2.20;;
35576;SDS011;21680;52.400;16.920;2023-03-05T06:43:44;9.90;;;3.20;;
35576;SDS011;21680;52.400;16.920;2023-03-05T06:46:33;5.90;;;2.60;;
35576;SDS011;21680;52.400;16.920;2023-03-05T06:48:59;5.60;;;2.30;;
35576;SDS011;21680;52.400;16.920;2023-03-05T06:51:27;9.20;;;1.80;;
35576;SDS011;21680;52.400;16.920;2023-03-05T06:53:55;6.50;;;2.10;;
35576;SDS011;21680;52.400;16.920;2023-03-05T06:56:24;5.20;;;1.60;;
35576;SDS011;21680;52.400;16.920;2023-03-05T06:58:50;5.50;;;2.10;;
35576;SDS011;21680;52.400;16.920;2023-03-05T07:01:16;3.60;;;2.00;;
35576;SDS011;21680;52.400;16.920;2023-03-05T07:03:43;5.20;;;2.30;;
35576;SDS011;21680;52.400;16.920;2023-03-05T07:06:11;6.40;;;1.70;;
35576;SDS011;21680;52.400;16.920;2023-03-05T07:08:37;5.80;;;1.60;;
35576;SDS011;21680;52.400;16.920;2023-03-05T07:11:08;5.00;;;1.50;;
35576;SDS011;21680;52.400;16.920;2023-03-05T07:13:34;8.10;;;2.50;;
35576;SDS011;21680;52.400;16.920;2023-03-05T07:16:03;10.60;;;2.90;;
35576;SDS011;21680;52.400;16.920;2023-03-05T07:18:33;11.40;;;2.90;;
35576;SDS011;21680;52.400;16.920;2023-03-05T07:21:02;10.00;;;2.60;;
35576;SDS011;21680;52.400;16.920;2023-03-05T07:23:28;9.00;;;3.20;;
35576;SDS011;21680;52.400;16.920;2023-03-05T07:25:54;8.50;;;3.10;;
35576;SDS011;21680;52.400;16.920;2023-03-05T07:28:19;7.00;;;3.00;;
35576;SDS011;21680;52.400;16.920;2023-03-05T07:30:44;12.10;;;4.30;;
35576;SDS011;21680;52.400;16.920;2023-03-05T07:33:10;8.60;;;3.00;;
35576;SDS011;21680;52.400;16.920;2023-03-05T07:35:38;8.10;;;3.00;;
35576;SDS011;21680;52.400;16.920;2023-03-05T07:38:04;16.70;;;4.50;;
35576;SDS011;21680;52.400;16.920;2023-03-05T07:40:30;12.20;;;4.10;;
35576;SDS011;21680;52.400;16.920;2023-03-05T07:42:55;13.00;;;5.90;;
35576;SDS011;21680;52.400;16.920;2023-03-05T07:45:20;12.90;;;5.20;;
35576;SDS011;21680;52.400;16.920;2023-03-05T07:47:46;16.40;;;5.80;;
35576;SDS011;21680;52.400;16.920;2023-03-05T07:50:11;12.10;;;5.10;;
35576;SDS011;21680;52.400;16.920;2023-03-05T07:52:36;14.60;;;5.10;;
35576;SDS011;21680;52.400;16.920;2023-03-05T07:55:01;13.70;;;5.60;;
35576;SDS011;21680;52.400;16.920;2023-03-05T07:57:27;16.50;;;4.40;;
35576;SDS011;21680;52.400;16.920;2023-03-05T07:59:52;16.50;;;4.40;;
35576;SDS011;21680;52.400;16.920;2023-03-05T08:02:18;13.40;;;5.50;;
35576;SDS011;21680;52.400;16.920;2023-03-05T08:04:44;13.50;;;5.40;;
35576;SDS011;21680;52.400;16.920;2023-03-05T08:07:12;15.90;;;5.60;;
35576;SDS011;21680;52.400;16.920;2023-03-05T08:09:38;9.70;;;4.30;;
35576;SDS011;21680;52.400;16.920;2023-03-05T08:12:04;17.60;;;5.60;;
35576;SDS011;21680;52.400;16.920;2023-03-05T08:14:29;12.50;;;4.90;;
35576;SDS011;21680;52.400;16.920;2023-03-05T08:16:54;13.40;;;4.40;;
35576;SDS011;21680;52.400;16.920;2023-03-05T08:19:20;11.30;;;5.40;;
35576;SDS011;21680;52.400;16.920;2023-03-05T08:21:45;17.00;;;5.10;;
35576;SDS011;21680;52.400;16.920;2023-03-05T08:24:11;13.90;;;4.60;;
35576;SDS011;21680;52.400;16.920;2023-03-05T08:26:37;14.20;;;3.80;;
35576;SDS011;21680;52.400;16.920;2023-03-05T08:29:04;22.10;;;5.00;;
35576;SDS011;21680;52.400;16.920;2023-03-05T08:31:31;11.90;;;4.60;;
35576;SDS011;21680;52.400;16.920;2023-03-05T08:33:57;13.00;;;4.30;;
35576;SDS011;21680;52.400;16.920;2023-03-05T08:36:24;9.70;;;4.00;;
35576;SDS011;21680;52.400;16.920;2023-03-05T08:38:49;11.80;;;4.20;;
35576;SDS011;21680;52.400;16.920;2023-03-05T08:41:15;13.60;;;3.60;;
35576;SDS011;21680;52.400;16.920;2023-03-05T08:43:42;10.30;;;2.60;;
35576;SDS011;21680;52.400;16.920;2023-03-05T08:46:09;8.60;;;3.10;;
35576;SDS011;21680;52.400;16.920;2023-03-05T08:48:36;10.60;;;3.10;;
35576;SDS011;21680;52.400;16.920;2023-03-05T08:51:08;15.30;;;3.00;;
35576;SDS011;21680;52.400;16.920;2023-03-05T08:53:36;13.70;;;2.80;;
35576;SDS011;21680;52.400;16.920;2023-03-05T08:56:03;9.60;;;3.20;;
35576;SDS011;21680;52.400;16.920;2023-03-05T08:58:28;8.80;;;3.10;;
35576;SDS011;21680;52.400;16.920;2023-03-05T09:00:54;20.60;;;4.40;;
35576;SDS011;21680;52.400;16.920;2023-03-05T09:03:20;14.70;;;3.60;;
35576;SDS011;21680;52.400;16.920;2023-03-05T09:05:46;11.50;;;3.20;;
35576;SDS011;21680;52.400;16.920;2023-03-05T09:08:11;9.20;;;3.00;;
35576;SDS011;21680;52.400;16.920;2023-03-05T09:10:37;8.90;;;2.60;;
35576;SDS011;21680;52.400;16.920;2023-03-05T09:13:02;12.10;;;2.80;;
35576;SDS011;21680;52.400;16.920;2023-03-05T09:15:28;11.30;;;4.40;;
35576;SDS011;21680;52.400;16.920;2023-03-05T09:17:54;11.20;;;3.50;;
35576;SDS011;21680;52.400;16.920;2023-03-05T09:20:20;10.90;;;3.10;;
35576;SDS011;21680;52.400;16.920;2023-03-05T09:22:46;13.40;;;3.60;;
35576;SDS011;21680;52.400;16.920;2023-03-05T09:25:11;10.90;;;2.50;;
35576;SDS011;21680;52.400;16.920;2023-03-05T09:27:37;13.40;;;3.60;;
35576;SDS011;21680;52.400;16.920;2023-03-05T09:30:03;12.20;;;2.50;;
35576;SDS011;21680;52.400;16.920;2023-03-05T09:32:30;16.30;;;3.60;;
35576;SDS011;21680;52.400;16.920;2023-03-05T09:34:55;14.50;;;3.40;;
35576;SDS011;21680;52.400;16.920;2023-03-05T09:37:21;20.20;;;3.60;;
35576;SDS011;21680;52.400;16.920;2023-03-05T09:39:47;14.40;;;2.10;;
35576;SDS011;21680;52.400;16.920;2023-03-05T09:42:19;9.70;;;3.20;;
35576;SDS011;21680;52.400;16.920;2023-03-05T09:45:13;7.00;;;2.00;;
35576;SDS011;21680;52.400;16.920;2023-03-05T09:50:53;17.50;;;3.90;;
35576;SDS011;21680;52.400;16.920;2023-03-05T09:53:44;10.60;;;2.90;;
35576;SDS011;21680;52.400;16.920;2023-03-05T09:56:35;14.10;;;2.50;;
35576;SDS011;21680;52.400;16.920;2023-03-05T10:02:12;15.20;;;3.20;;
35576;SDS011;21680;52.400;16.920;2023-03-05T10:04:54;13.80;;;2.30;;
35576;SDS011;21680;52.400;16.920;2023-03-05T10:07:33;10.90;;;2.30;;
35576;SDS011;21680;52.400;16.920;2023-03-05T10:10:04;11.40;;;2.80;;
35576;SDS011;21680;52.400;16.920;2023-03-05T10:12:44;12.90;;;2.30;;
35576;SDS011;21680;52.400;16.920;2023-03-05T10:15:25;10.70;;;2.50;;
35576;SDS011;21680;52.400;16.920;2023-03-05T10:32:04;6.20;;;2.10;;
35576;SDS011;21680;52.400;16.920;2023-03-05T10:37:25;15.20;;;2.30;;
35576;SDS011;21680;52.400;16.920;2023-03-05T10:45:38;11.50;;;2.60;;
35576;SDS011;21680;52.400;16.920;2023-03-05T10:50:55;3.50;;;1.80;;
35576;SDS011;21680;52.400;16.920;2023-03-05T10:53:31;3.90;;;2.00;;
35576;SDS011;21680;52.400;16.920;2023-03-05T10:56:04;8.90;;;2.20;;
35576;SDS011;21680;52.400;16.920;2023-03-05T10:58:30;5.40;;;2.00;;
35576;SDS011;21680;52.400;16.920;2023-03-05T11:01:42;6.70;;;1.90;;
35576;SDS011;21680;52.400;16.920;2023-03-05T11:03:52;7.20;;;2.00;;
35576;SDS011;21680;52.400;16.920;2023-03-05T11:06:30;9.60;;;2.00;;
35576;SDS011;21680;52.400;16.920;2023-03-05T11:12:03;9.30;;;2.50;;
35576;SDS011;21680;52.400;16.920;2023-03-05T11:17:38;6.30;;;1.90;;
35576;SDS011;21680;52.400;16.920;2023-03-05T11:20:52;13.10;;;2.40;;
35576;SDS011;21680;52.400;16.920;2023-03-05T11:26:02;9.50;;;2.10;;
35576;SDS011;21680;52.400;16.920;2023-03-05T11:28:32;10.20;;;2.60;;
35576;SDS011;21680;52.400;16.920;2023-03-05T11:31:01;12.00;;;2.40;;
35576;SDS011;21680;52.400;16.920;2023-03-05T11:33:31;4.40;;;2.60;;
35576;SDS011;21680;52.400;16.920;2023-03-05T11:36:12;7.10;;;2.10;;
35576;SDS011;21680;52.400;16.920;2023-03-05T11:44:13;8.70;;;2.60;;
35576;SDS011;21680;52.400;16.920;2023-03-05T11:49:59;15.90;;;3.10;;
35576;SDS011;21680;52.400;16.920;2023-03-05T11:52:48;11.90;;;3.30;;
35576;SDS011;21680;52.400;16.920;2023-03-05T11:55:16;13.60;;;2.90;;
35576;SDS011;21680;52.400;16.920;2023-03-05T12:00:17;12.30;;;2.70;;
35576;SDS011;21680;52.400;16.920;2023-03-05T12:02:46;13.90;;;3.70;;
35576;SDS011;21680;52.400;16.920;2023-03-05T12:05:17;8.70;;;2.20;;
35576;SDS011;21680;52.400;16.920;2023-03-05T12:07:44;7.20;;;2.40;;
35576;SDS011;21680;52.400;16.920;2023-03-05T12:10:16;8.40;;;2.80;;
35576;SDS011;21680;52.400;16.920;2023-03-05T12:12:49;5.30;;;2.40;;
35576;SDS011;21680;52.400;16.920;2023-03-05T12:18:14;15.40;;;2.90;;
35576;SDS011;21680;52.400;16.920;2023-03-05T12:23:50;14.50;;;3.10;;
35576;SDS011;21680;52.400;16.920;2023-03-05T12:26:15;9.00;;;2.70;;
35576;SDS011;21680;52.400;16.920;2023-03-05T12:34:43;8.80;;;2.70;;
35576;SDS011;21680;52.400;16.920;2023-03-05T12:37:00;7.90;;;2.30;;
35576;SDS011;21680;52.400;16.920;2023-03-05T12:48:32;7.30;;;1.90;;
35576;SDS011;21680;52.400;16.920;2023-03-05T12:53:37;5.60;;;2.70;;
35576;SDS011;21680;52.400;16.920;2023-03-05T12:58:46;9.50;;;3.00;;
35576;SDS011;21680;52.400;16.920;2023-03-05T13:01:31;9.60;;;2.60;;
35576;SDS011;21680;52.400;16.920;2023-03-05T13:04:12;9.60;;;3.40;;
35576;SDS011;21680;52.400;16.920;2023-03-05T13:06:41;14.80;;;4.20;;
35576;SDS011;21680;52.400;16.920;2023-03-05T13:09:22;10.60;;;4.00;;
35576;SDS011;21680;52.400;16.920;2023-03-05T13:11:52;9.80;;;3.30;;
35576;SDS011;21680;52.400;16.920;2023-03-05T13:14:25;11.10;;;3.60;;
35576;SDS011;21680;52.400;16.920;2023-03-05T13:16:54;14.50;;;4.00;;
35576;SDS011;21680;52.400;16.920;2023-03-05T13:19:19;10.60;;;4.50;;
35576;SDS011;21680;52.400;16.920;2023-03-05T13:21:45;13.00;;;4.90;;
35576;SDS011;21680;52.400;16.920;2023-03-05T13:24:22;10.70;;;3.50;;
35576;SDS011;21680;52.400;16.920;2023-03-05T13:26:48;11.80;;;3.50;;
35576;SDS011;21680;52.400;16.920;2023-03-05T13:29:17;7.30;;;3.20;;
35576;SDS011;21680;52.400;16.920;2023-03-05T13:31:48;8.80;;;3.30;;
35576;SDS011;21680;52.400;16.920;2023-03-05T13:34:20;6.70;;;2.30;;
35576;SDS011;21680;52.400;16.920;2023-03-05T13:36:54;10.60;;;2.70;;
35576;SDS011;21680;52.400;16.920;2023-03-05T13:39:28;10.10;;;3.10;;
35576;SDS011;21680;52.400;16.920;2023-03-05T13:42:01;5.90;;;2.30;;
35576;SDS011;21680;52.400;16.920;2023-03-05T13:44:30;9.90;;;2.90;;
35576;SDS011;21680;52.400;16.920;2023-03-05T13:47:17;7.90;;;2.40;;
35576;SDS011;21680;52.400;16.920;2023-03-05T13:49:44;9.80;;;2.70;;
35576;SDS011;21680;52.400;16.920;2023-03-05T13:52:11;5.00;;;1.80;;
35576;SDS011;21680;52.400;16.920;2023-03-05T13:54:50;10.40;;;2.90;;
35576;SDS011;21680;52.400;16.920;2023-03-05T13:57:32;4.50;;;2.40;;
35576;SDS011;21680;52.400;16.920;2023-03-05T14:03:00;10.70;;;3.00;;
35576;SDS011;21680;52.400;16.920;2023-03-05T14:05:54;10.70;;;3.50;;
35576;SDS011;21680;52.400;16.920;2023-03-05T14:08:23;13.00;;;2.80;;
35576;SDS011;21680;52.400;16.920;2023-03-05T14:13:18;8.10;;;2.70;;
35576;SDS011;21680;52.400;16.920;2023-03-05T14:18:51;9.30;;;3.40;;
35576;SDS011;21680;52.400;16.920;2023-03-05T14:21:21;13.50;;;3.70;;
35576;SDS011;21680;52.400;16.920;2023-03-05T14:23:48;7.90;;;2.30;;
35576;SDS011;21680;52.400;16.920;2023-03-05T14:26:21;9.50;;;3.10;;
35576;SDS011;21680;52.400;16.920;2023-03-05T14:31:33;12.10;;;3.20;;
35576;SDS011;21680;52.400;16.920;2023-03-05T14:34:20;9.30;;;3.10;;
35576;SDS011;21680;52.400;16.920;2023-03-05T14:36:49;8.40;;;2.90;;
35576;SDS011;21680;52.400;16.920;2023-03-05T14:42:31;11.20;;;4.30;;
35576;SDS011;21680;52.400;16.920;2023-03-05T14:45:01;9.00;;;2.60;;
35576;SDS011;21680;52.400;16.920;2023-03-05T14:47:35;7.60;;;2.20;;
35576;SDS011;21680;52.400;16.920;2023-03-05T14:50:00;8.60;;;3.10;;
35576;SDS011;21680;52.400;16.920;2023-03-05T14:52:26;9.60;;;3.70;;
35576;SDS011;21680;52.400;16.920;2023-03-05T14:54:52;10.10;;;3.20;;
35576;SDS011;21680;52.400;16.920;2023-03-05T14:57:20;6.50;;;2.60;;
35576;SDS011;21680;52.400;16.920;2023-03-05T14:59:49;11.80;;;2.70;;
35576;SDS011;21680;52.400;16.920;2023-03-05T15:02:19;8.30;;;2.80;;
35576;SDS011;21680;52.400;16.920;2023-03-05T15:04:47;7.80;;;3.00;;
35576;SDS011;21680;52.400;16.920;2023-03-05T15:07:26;14.00;;;3.50;;
35576;SDS011;21680;52.400;16.920;2023-03-05T15:09:54;9.80;;;3.10;;
35576;SDS011;21680;52.400;16.920;2023-03-05T15:12:27;16.80;;;5.60;;
35576;SDS011;21680;52.400;16.920;2023-03-05T15:14:53;14.50;;;5.60;;
35576;SDS011;21680;52.400;16.920;2023-03-05T15:17:21;11.50;;;3.70;;
35576;SDS011;21680;52.400;16.920;2023-03-05T15:19:50;9.20;;;3.70;;
35576;SDS011;21680;52.400;16.920;2023-03-05T15:22:17;12.90;;;2.80;;
35576;SDS011;21680;52.400;16.920;2023-03-05T15:24:43;8.20;;;2.90;;
35576;SDS011;21680;52.400;16.920;2023-03-05T15:27:12;8.00;;;2.30;;
35576;SDS011;21680;52.400;16.920;2023-03-05T15:29:38;12.30;;;2.40;;
35576;SDS011;21680;52.400;16.920;2023-03-05T15:32:04;11.30;;;2.00;;
35576;SDS011;21680;52.400;16.920;2023-03-05T15:34:30;7.10;;;2.10;;
35576;SDS011;21680;52.400;16.920;2023-03-05T15:36:58;8.50;;;2.70;;
35576;SDS011;21680;52.400;16.920;2023-03-05T15:39:25;6.90;;;2.50;;
35576;SDS011;21680;52.400;16.920;2023-03-05T15:41:51;11.80;;;3.00;;
35576;SDS011;21680;52.400;16.920;2023-03-05T15:44:18;10.10;;;2.20;;
35576;SDS011;21680;52.400;16.920;2023-03-05T15:46:46;11.70;;;3.60;;
35576;SDS011;21680;52.400;16.920;2023-03-05T15:49:15;10.50;;;2.80;;
35576;SDS011;21680;52.400;16.920;2023-03-05T15:51:41;7.80;;;2.90;;
35576;SDS011;21680;52.400;16.920;2023-03-05T15:54:06;9.00;;;3.30;;
35576;SDS011;21680;52.400;16.920;2023-03-05T15:56:32;8.80;;;2.90;;
35576;SDS011;21680;52.400;16.920;2023-03-05T15:58:57;11.00;;;3.10;;
35576;SDS011;21680;52.400;16.920;2023-03-05T16:01:22;9.80;;;3.00;;
35576;SDS011;21680;52.400;16.920;2023-03-05T16:03:49;9.80;;;2.60;;
35576;SDS011;21680;52.400;16.920;2023-03-05T16:06:15;6.70;;;2.90;;
35576;SDS011;21680;52.400;16.920;2023-03-05T16:08:47;10.60;;;2.90;;
35576;SDS011;21680;52.400;16.920;2023-03-05T16:11:20;10.40;;;2.60;;